Time;durP1;ratioP1;P1;durP2;ratioP2;P2;SDS_P1;SDS_P2;PMS_P1;PMS_P2;Temp;Humidity;BMP_temperature;BMP_pressure;BME280_temperature;BME280_humidity;BME280_pressure;Samples;Min_cycle;Max_cycle;Signal;HPM_P1;HPM_P2
2023/10/03 00:01:10;;;;;;;45.00;24.30;;;;;;;10.26;100.00;101424.63;105748;1256;73106;-75
2023/10/03 00:03:38;;;;;;;38.90;24.00;;;;;;;10.24;100.00;101427.71;105771;1258;61290;-74
2023/10/03 00:06:07;;;;;;;43.00;23.60;;;;;;;10.21;100.00;101425.40;105679;1257;72714;-74
2023/10/03 00:08:34;;;;;;;37.20;22.70;;;;;;;10.20;100.00;101427.56;105742;1257;61584;-73
2023/10/03 00:11:02;;;;;;;35.30;20.80;;;;;;;10.16;100.00;101428.91;105603;1257;59746;-75
2023/10/03 00:13:31;;;;;;;28.60;17.10;;;;;;;10.14;100.00;101433.75;105620;1254;73351;-73
2023/10/03 00:15:59;;;;;;;28.90;16.90;;;;;;;10.12;100.00;101435.94;105830;1256;63471;-76
2023/10/03 00:18:27;;;;;;;33.80;18.00;;;;;;;10.10;100.00;101433.59;105715;1256;72661;-73
2023/10/03 00:20:55;;;;;;;29.40;15.10;;;;;;;10.08;100.00;101436.27;105806;1257;60557;-71
2023/10/03 00:23:24;;;;;;;23.00;13.70;;;;;;;10.05;100.00;101437.30;105682;1254;60449;-76
2023/10/03 00:25:54;;;;;;;27.40;16.00;;;;;;;10.01;100.00;101437.64;105764;1253;73235;-73
2023/10/03 00:28:21;;;;;;;26.60;13.20;;;;;;;9.97;100.00;101437.83;105688;1257;62372;-74
2023/10/03 00:30:51;;;;;;;27.50;14.80;;;;;;;9.93;100.00;101435.55;105742;1256;72667;-76
2023/10/03 00:33:21;;;;;;;21.60;11.90;;;;;;;9.91;100.00;101434.94;105684;1254;59755;-74
2023/10/03 00:35:51;;;;;;;23.10;10.80;;;;;;;9.88;100.00;101436.13;105650;1253;60189;-76
2023/10/03 00:38:19;;;;;;;19.40;9.80;;;;;;;9.85;100.00;101437.84;105615;1256;72422;-74
2023/10/03 00:40:48;;;;;;;20.70;11.00;;;;;;;9.82;100.00;101440.58;105628;1254;62765;-72
2023/10/03 00:43:17;;;;;;;18.00;10.90;;;;;;;9.80;100.00;101440.16;105662;1254;72429;-75
2023/10/03 00:45:45;;;;;;;21.60;12.10;;;;;;;9.77;100.00;101438.19;105718;1254;60593;-73
2023/10/03 00:48:13;;;;;;;19.60;11.20;;;;;;;9.73;100.00;101443.77;105640;1253;59551;-76
2023/10/03 00:50:42;;;;;;;25.30;11.30;;;;;;;9.71;100.00;101441.55;105701;1254;71173;-72
2023/10/03 00:53:12;;;;;;;18.70;9.90;;;;;;;9.70;100.00;101442.81;105641;1254;62725;-72
2023/10/03 00:55:43;;;;;;;16.10;9.80;;;;;;;9.67;100.00;101442.27;105826;1257;70776;-76
2023/10/03 01:00:44;;;;;;;16.50;9.60;;;;;;;9.63;100.00;101445.23;105673;1257;59692;-76
2023/10/03 01:03:31;;;;;;;22.30;10.60;;;;;;;9.61;100.00;101445.67;105718;1259;73151;-73
2023/10/03 01:06:07;;;;;;;12.90;9.20;;;;;;;9.60;100.00;101446.27;105706;1254;63717;-75
2023/10/03 01:08:39;;;;;;;15.20;9.40;;;;;;;9.58;100.00;101449.31;105835;1253;71981;-73
2023/10/03 01:11:15;;;;;;;23.60;9.50;;;;;;;9.55;100.00;101445.73;105792;1254;60786;-73
2023/10/03 01:13:47;;;;;;;16.80;8.80;;;;;;;9.51;100.00;101448.70;105520;1259;59617;-74
2023/10/03 01:16:37;;;;;;;16.50;8.70;;;;;;;9.49;100.00;101449.67;105679;1254;71855;-73
2023/10/03 01:19:25;;;;;;;14.00;7.90;;;;;;;9.47;100.00;101449.59;105512;1254;62499;-73
2023/10/03 01:21:53;;;;;;;16.50;7.80;;;;;;;9.45;100.00;101448.25;105535;1257;72677;-76
2023/10/03 01:24:25;;;;;;;18.30;8.40;;;;;;;9.45;100.00;101446.34;105592;1254;61903;-75
2023/10/03 01:26:55;;;;;;;18.60;7.70;;;;;;;9.45;100.00;101447.90;106766;1256;60412;-71
2023/10/03 01:29:22;;;;;;;15.70;7.90;;;;;;;9.45;100.00;101451.06;106716;1254;74620;-72
2023/10/03 01:31:52;;;;;;;15.20;8.00;;;;;;;9.43;100.00;101454.45;105899;1255;62373;-73
2023/10/03 01:34:20;;;;;;;19.70;7.60;;;;;;;9.41;100.00;101456.09;105697;1254;73873;-74
2023/10/03 01:36:48;;;;;;;19.00;8.30;;;;;;;9.39;100.00;101456.89;105777;1256;61764;-71
2023/10/03 01:39:16;;;;;;;16.80;8.50;;;;;;;9.36;100.00;101459.12;105897;1256;60440;-72
2023/10/03 01:41:45;;;;;;;13.40;6.90;;;;;;;9.34;100.00;101461.98;105852;1254;72638;-73
2023/10/03 01:44:16;;;;;;;11.90;7.10;;;;;;;9.32;100.00;101458.59;105678;1254;62410;-75
2023/10/03 01:46:44;;;;;;;13.20;6.40;;;;;;;9.30;100.00;101457.27;105651;1254;72795;-72
2023/10/03 01:49:14;;;;;;;17.90;7.00;;;;;;;9.26;100.00;101459.16;105790;1254;60424;-74
2023/10/03 01:51:43;;;;;;;15.70;6.60;;;;;;;9.24;100.00;101455.79;105798;1257;60384;-75
2023/10/03 01:54:11;;;;;;;12.50;7.60;;;;;;;9.21;100.00;101457.27;105859;1253;74738;-75
2023/10/03 01:56:39;;;;;;;14.00;7.20;;;;;;;9.19;100.00;101455.96;105729;1254;62921;-76
2023/10/03 01:59:07;;;;;;;17.50;6.70;;;;;;;9.18;100.00;101461.42;105689;1257;72426;-74
2023/10/03 02:01:37;;;;;;;13.70;7.40;;;;;;;9.17;100.00;101457.83;105762;1257;61132;-73
2023/10/03 02:04:06;;;;;;;13.30;7.30;;;;;;;9.15;100.00;101456.66;105718;1259;60521;-72
2023/10/03 02:06:34;;;;;;;11.40;5.80;;;;;;;9.13;100.00;101462.81;105936;1254;71618;-72
2023/10/03 02:09:03;;;;;;;14.10;7.10;;;;;;;9.13;100.00;101467.21;105708;1257;63570;-74
2023/10/03 02:11:32;;;;;;;13.80;6.30;;;;;;;9.11;100.00;101470.92;105636;1254;71199;-75
2023/10/03 02:14:02;;;;;;;16.20;6.70;;;;;;;9.09;100.00;101476.61;105641;1254;60549;-75
2023/10/03 02:16:34;;;;;;;12.40;6.20;;;;;;;9.07;100.00;101476.69;105785;1256;60357;-73
2023/10/03 02:19:01;;;;;;;11.20;6.70;;;;;;;9.07;100.00;101479.33;105519;1259;73892;-76
2023/10/03 02:21:29;;;;;;;8.90;6.00;;;;;;;9.05;100.00;101479.23;105613;1254;62394;-73
2023/10/03 02:23:57;;;;;;;9.10;5.60;;;;;;;9.02;100.00;101477.77;105762;1253;71262;-74
2023/10/03 02:26:28;;;;;;;14.60;6.00;;;;;;;9.00;100.00;101479.75;105717;1254;60906;-72
2023/10/03 02:28:59;;;;;;;15.30;5.90;;;;;;;8.97;100.00;101480.06;105672;1257;60540;-72
2023/10/03 02:31:27;;;;;;;10.30;4.80;;;;;;;8.95;100.00;101482.77;105927;1253;73061;-71
2023/10/03 02:33:55;;;;;;;9.10;5.60;;;;;;;8.93;100.00;101485.08;105743;1253;62557;-74
2023/10/03 02:36:23;;;;;;;9.70;6.00;;;;;;;8.91;100.00;101479.77;105880;1254;72283;-73
2023/10/03 02:38:50;;;;;;;13.70;5.00;;;;;;;8.89;100.00;101483.34;105676;1254;60565;-73
2023/10/03 02:41:19;;;;;;;10.60;5.80;;;;;;;8.87;100.00;101485.33;105771;1253;60413;-74
2023/10/03 02:43:47;;;;;;;11.20;5.30;;;;;;;8.85;100.00;101482.63;105676;1257;73859;-73
2023/10/03 02:46:26;;;;;;;7.40;4.50;;;;;;;8.81;100.00;101484.49;105645;1252;61696;-74
2023/10/03 02:48:55;;;;;;;14.50;4.80;;;;;;;8.78;100.00;101484.45;105603;1259;72738;-75
2023/10/03 02:51:23;;;;;;;10.60;5.10;;;;;;;8.77;100.00;101491.10;105964;1256;60485;-72
2023/10/03 02:53:52;;;;;;;8.20;4.60;;;;;;;8.76;100.00;101488.54;105703;1255;60355;-73
2023/10/03 02:56:22;;;;;;;11.30;5.20;;;;;;;8.75;100.00;101498.88;105733;1254;72651;-74
2023/10/03 02:58:50;;;;;;;14.30;6.40;;;;;;;8.73;100.00;101495.10;105690;1253;62535;-71
2023/10/03 03:01:17;;;;;;;12.60;5.10;;;;;;;8.72;100.00;101499.70;105656;1254;72743;-73
2023/10/03 03:03:45;;;;;;;13.80;4.60;;;;;;;8.71;100.00;101500.23;105652;1257;60919;-71
2023/10/03 03:06:14;;;;;;;11.40;5.60;;;;;;;8.70;100.00;101506.17;105817;1256;60437;-71
2023/10/03 03:08:45;;;;;;;9.50;5.00;;;;;;;8.70;100.00;101507.78;105738;1253;72800;-74
2023/10/03 03:11:18;;;;;;;14.30;5.30;;;;;;;8.69;100.00;101516.51;105789;1253;63730;-71
2023/10/03 03:13:46;;;;;;;11.30;5.40;;;;;;;8.67;100.00;101509.80;105515;1253;72774;-75
2023/10/03 03:16:14;;;;;;;12.20;5.10;;;;;;;8.65;100.00;101510.59;105589;1254;60495;-74
2023/10/03 03:18:43;;;;;;;10.00;5.90;;;;;;;8.63;100.00;101510.48;105684;1253;60348;-73
2023/10/03 03:21:15;;;;;;;8.70;5.30;;;;;;;8.61;100.00;101509.33;105828;1256;73843;-75
2023/10/03 03:23:56;;;;;;;11.10;5.00;;;;;;;8.59;100.00;101512.37;105698;1253;62137;-73
2023/10/03 03:27:11;;;;;;;13.00;5.40;;;;;;;8.59;100.00;101508.70;105636;1254;72487;-73
2023/10/03 03:29:22;;;;;;;10.80;5.80;;;;;;;8.59;100.00;101509.94;105692;1258;63750;-75
2023/10/03 03:31:50;;;;;;;12.00;5.20;;;;;;;8.56;100.00;101512.65;105817;1256;60543;-73
2023/10/03 03:34:20;;;;;;;11.90;4.90;;;;;;;8.53;100.00;101509.79;105555;1257;72410;-74
2023/10/03 03:36:54;;;;;;;10.10;4.90;;;;;;;8.51;100.00;101508.64;105842;1254;63749;-74
2023/10/03 03:39:26;;;;;;;11.90;5.90;;;;;;;8.50;100.00;101512.52;105788;1256;71783;-76
2023/10/03 03:41:54;;;;;;;11.00;6.00;;;;;;;8.51;100.00;101512.66;105683;1253;60871;-73
2023/10/03 03:44:22;;;;;;;16.40;9.00;;;;;;;8.51;100.00;101510.58;105648;1256;60463;-75
2023/10/03 03:46:49;;;;;;;10.30;6.40;;;;;;;8.51;100.00;101515.79;105763;1254;74360;-75
2023/10/03 03:49:19;;;;;;;11.20;5.90;;;;;;;8.51;100.00;101519.11;105768;1254;63531;-73
2023/10/03 03:51:46;;;;;;;12.80;5.30;;;;;;;8.49;100.00;101517.42;105953;1254;73319;-72
2023/10/03 03:54:14;;;;;;;15.60;6.20;;;;;;;8.49;100.00;101518.30;105840;1253;60537;-74
2023/10/03 03:56:41;;;;;;;11.30;5.20;;;;;;;8.49;100.00;101521.25;105833;1253;60616;-73
2023/10/03 03:59:09;;;;;;;14.50;5.90;;;;;;;8.49;100.00;101522.67;105825;1255;72830;-73
2023/10/03 04:01:37;;;;;;;14.90;5.90;;;;;;;8.49;100.00;101525.30;105753;1256;63857;-73
2023/10/03 04:04:07;;;;;;;11.10;5.50;;;;;;;8.48;100.00;101533.33;105986;1257;71339;-74
2023/10/03 04:06:35;;;;;;;14.50;6.10;;;;;;;8.49;100.00;101536.08;105885;1253;62024;-75
2023/10/03 04:09:05;;;;;;;15.80;6.10;;;;;;;8.50;100.00;101540.41;105675;1256;60376;-74
2023/10/03 04:11:35;;;;;;;14.50;5.80;;;;;;;8.51;100.00;101542.64;105761;1254;71701;-73
2023/10/03 04:14:05;;;;;;;12.80;4.90;;;;;;;8.53;100.00;101544.50;105764;1256;62410;-73
2023/10/03 04:16:43;;;;;;;13.30;4.60;;;;;;;8.56;100.00;101547.70;105944;1257;73333;-75
2023/10/03 04:19:11;;;;;;;17.10;6.00;;;;;;;8.59;100.00;101551.09;106261;1253;60578;-73
2023/10/03 04:21:43;;;;;;;10.90;5.20;;;;;;;8.61;100.00;101550.30;106137;1256;60428;-73
2023/10/03 04:24:11;;;;;;;15.10;5.70;;;;;;;8.63;100.00;101552.12;105961;1254;72671;-71
2023/10/03 04:26:42;;;;;;;11.90;5.40;;;;;;;8.66;100.00;101555.52;105800;1253;62900;-74
2023/10/03 04:29:13;;;;;;;11.20;4.90;;;;;;;8.69;100.00;101557.66;105764;1255;72942;-70
2023/10/03 04:31:44;;;;;;;12.70;4.80;;;;;;;8.73;100.00;101560.85;105968;1254;60683;-74
2023/10/03 04:34:18;;;;;;;14.90;5.80;;;;;;;8.76;100.00;101561.76;105737;1257;60344;-75
2023/10/03 04:36:47;;;;;;;11.10;4.80;;;;;;;8.81;100.00;101567.66;105899;1256;74033;-73
2023/10/03 04:39:15;;;;;;;17.60;5.40;;;;;;;8.86;100.00;101568.00;105635;1253;63874;-76
2023/10/03 04:41:44;;;;;;;22.90;5.40;;;;;;;8.92;100.00;101568.66;105767;1254;71396;-73
2023/10/03 04:44:15;;;;;;;10.30;5.50;;;;;;;8.98;100.00;101565.27;105743;1253;60930;-76
2023/10/03 04:46:46;;;;;;;8.50;5.90;;;;;;;9.05;100.00;101567.98;105755;1253;60357;-76
2023/10/03 04:49:14;;;;;;;14.80;5.60;;;;;;;9.23;100.00;101566.44;105590;1256;73961;-75
2023/10/03 04:51:45;;;;;;;13.20;4.60;;;;;;;9.44;100.00;101574.85;105690;1256;63680;-72
2023/10/03 04:54:16;;;;;;;24.00;4.90;;;;;;;9.59;100.00;101572.48;105655;1256;71245;-74
2023/10/03 04:56:44;;;;;;;14.90;4.70;;;;;;;9.70;100.00;101581.48;105606;1254;61113;-75
2023/10/03 04:59:13;;;;;;;16.80;6.70;;;;;;;9.76;100.00;101583.33;105650;1256;60334;-75
2023/10/03 05:01:40;;;;;;;16.30;6.00;;;;;;;9.83;100.00;101588.11;105709;1254;73826;-74
2023/10/03 05:04:08;;;;;;;10.20;4.50;;;;;;;9.90;100.00;101590.27;105644;1254;63813;-73
2023/10/03 05:06:35;;;;;;;11.90;5.50;;;;;;;9.97;100.00;101594.02;105599;1257;72307;-74
2023/10/03 05:09:04;;;;;;;10.80;4.60;;;;;;;10.03;100.00;101594.47;105688;1253;60444;-77
2023/10/03 05:11:32;;;;;;;11.60;5.10;;;;;;;10.14;100.00;101592.58;105958;1254;60419;-73
2023/10/03 05:14:01;;;;;;;10.40;4.90;;;;;;;10.31;100.00;101599.36;105734;1256;72971;-76
2023/10/03 05:16:29;;;;;;;9.50;4.70;;;;;;;10.45;100.00;101600.21;105791;1256;63491;-73
2023/10/03 05:18:56;;;;;;;12.00;5.30;;;;;;;10.52;100.00;101603.75;105671;1253;71741;-73
2023/10/03 05:21:24;;;;;;;12.90;6.00;;;;;;;10.55;100.00;101610.10;105857;1256;60687;-75
2023/10/03 05:23:52;;;;;;;9.00;4.70;;;;;;;10.60;100.00;101613.02;105743;1254;60513;-72
2023/10/03 05:26:21;;;;;;;8.50;4.80;;;;;;;10.70;100.00;101616.59;105856;1253;73873;-73
2023/10/03 05:28:48;;;;;;;11.50;5.50;;;;;;;10.83;100.00;101621.80;105797;1256;62486;-72
2023/10/03 05:31:17;;;;;;;12.50;4.60;;;;;;;11.00;100.00;101624.34;105835;1256;72708;-73
2023/10/03 05:33:44;;;;;;;9.20;4.50;;;;;;;11.17;100.00;101630.39;105894;1253;60710;-71
2023/10/03 05:36:22;;;;;;;14.60;4.60;;;;;;;11.37;100.00;101624.17;105882;1256;60382;-73
2023/10/03 05:38:49;;;;;;;10.20;4.40;;;;;;;11.76;100.00;101627.40;105715;1255;73780;-74
2023/10/03 05:41:23;;;;;;;11.50;4.50;;;;;;;12.32;100.00;101633.44;105687;1256;64212;-73
2023/10/03 05:43:52;;;;;;;13.50;6.40;;;;;;;12.90;100.00;101638.83;105677;1254;71649;-75
2023/10/03 05:46:20;;;;;;;14.30;5.90;;;;;;;13.41;100.00;101641.35;105846;1257;60514;-74
2023/10/03 05:48:47;;;;;;;11.30;5.20;;;;;;;13.94;100.00;101636.58;105703;1256;61598;-73
2023/10/03 05:51:15;;;;;;;10.10;4.70;;;;;;;14.43;100.00;101637.92;105597;1256;73320;-73
2023/10/03 05:53:42;;;;;;;8.80;5.20;;;;;;;14.72;100.00;101640.83;105646;1253;63640;-73
2023/10/03 05:56:12;;;;;;;11.20;5.30;;;;;;;14.92;100.00;101642.53;105597;1253;70601;-76
2023/10/03 05:58:40;;;;;;;10.00;5.40;;;;;;;15.04;100.00;101642.89;105800;1253;60872;-74
2023/10/03 06:01:07;;;;;;;11.10;5.80;;;;;;;15.13;100.00;101647.39;105807;1256;60361;-73
2023/10/03 06:03:36;;;;;;;11.90;5.40;;;;;;;15.29;100.00;101646.75;105937;1254;73896;-73
2023/10/03 06:06:04;;;;;;;10.00;5.50;;;;;;;15.49;100.00;101650.61;105881;1254;62440;-76
2023/10/03 06:08:32;;;;;;;10.00;6.00;;;;;;;15.64;100.00;101649.45;105684;1254;71458;-76
2023/10/03 06:11:02;;;;;;;12.90;5.20;;;;;;;15.85;100.00;101647.05;105753;1254;60431;-74
2023/10/03 06:13:30;;;;;;;9.10;5.20;;;;;;;16.06;100.00;101645.85;105710;1255;61182;-74
2023/10/03 06:16:00;;;;;;;12.70;5.60;;;;;;;16.20;100.00;101654.63;105859;1256;73004;-73
2023/10/03 06:18:27;;;;;;;10.50;5.60;;;;;;;16.36;100.00;101650.17;105565;1253;62712;-75
2023/10/03 06:20:57;;;;;;;12.50;5.90;;;;;;;16.68;100.00;101649.77;105734;1253;71434;-72
2023/10/03 06:23:26;;;;;;;11.90;5.90;;;;;;;17.08;100.00;101651.42;105784;1256;62659;-74
2023/10/03 06:25:53;;;;;;;6.70;4.70;;;;;;;17.55;100.00;101656.38;105664;1257;61192;-74
2023/10/03 06:28:21;;;;;;;11.90;5.20;;;;;;;18.07;98.76;101656.08;105782;1254;72879;-76
2023/10/03 06:30:52;;;;;;;14.10;6.40;;;;;;;18.58;94.96;101658.18;105682;1254;62422;-74
2023/10/03 06:33:20;;;;;;;11.60;6.00;;;;;;;19.08;89.20;101663.05;105748;1254;71479;-77
2023/10/03 06:35:52;;;;;;;7.80;5.30;;;;;;;19.53;83.51;101665.06;105742;1253;60520;-74
2023/10/03 06:38:20;;;;;;;9.90;5.10;;;;;;;19.92;76.15;101658.70;105743;1254;60521;-74
2023/10/03 06:40:47;;;;;;;7.90;5.40;;;;;;;20.21;71.40;101661.67;105779;1254;74054;-73
2023/10/03 06:43:17;;;;;;;8.00;5.00;;;;;;;20.52;68.74;101662.06;105732;1256;63605;-75
2023/10/03 06:45:45;;;;;;;10.80;5.00;;;;;;;20.90;65.64;101662.58;105758;1254;72077;-75
2023/10/03 06:48:13;;;;;;;6.90;4.90;;;;;;;21.21;62.36;101660.30;105800;1256;60546;-76
2023/10/03 06:50:42;;;;;;;10.70;6.20;;;;;;;21.44;59.88;101663.52;105880;1256;60601;-75
2023/10/03 06:53:13;;;;;;;13.30;5.30;;;;;;;21.67;58.74;101662.96;105816;1254;72924;-75
2023/10/03 06:55:40;;;;;;;12.40;5.50;;;;;;;21.97;56.42;101661.56;105889;1253;63962;-77
2023/10/03 06:58:10;;;;;;;12.30;5.90;;;;;;;22.22;54.66;101661.89;105681;1253;74937;-75
2023/10/03 07:00:38;;;;;;;9.50;5.20;;;;;;;22.46;53.22;101666.84;105759;1253;60627;-76
2023/10/03 07:03:06;;;;;;;7.70;4.50;;;;;;;22.63;51.14;101664.33;105727;1257;62078;-74
2023/10/03 07:05:35;;;;;;;8.80;4.50;;;;;;;22.78;49.91;101666.48;105678;1256;71820;-76
2023/10/03 07:08:04;;;;;;;5.90;4.20;;;;;;;22.98;49.61;101664.38;105841;1254;63554;-75
2023/10/03 07:10:32;;;;;;;6.70;4.10;;;;;;;23.21;48.22;101667.21;106156;1254;74826;-75
2023/10/03 07:13:01;;;;;;;6.50;4.00;;;;;;;23.40;47.36;101665.52;107304;1254;61695;-74
2023/10/03 07:15:29;;;;;;;8.50;4.10;;;;;;;23.61;46.02;101669.68;106596;1253;60438;-77
2023/10/03 07:17:57;;;;;;;8.00;4.00;;;;;;;23.79;44.76;101670.29;105856;1256;74477;-75
2023/10/03 07:20:25;;;;;;;8.00;3.90;;;;;;;23.88;43.93;101666.84;105679;1256;62399;-75
2023/10/03 07:22:53;;;;;;;7.90;4.10;;;;;;;24.03;44.04;101667.17;105714;1253;73395;-76
2023/10/03 07:25:21;;;;;;;5.70;3.90;;;;;;;24.26;43.62;101669.44;105871;1252;60495;-76
2023/10/03 07:27:49;;;;;;;10.70;4.80;;;;;;;24.51;42.69;101672.54;105796;1253;60505;-75
2023/10/03 07:30:18;;;;;;;4.70;3.30;;;;;;;24.74;41.95;101670.67;105736;1254;75250;-77
2023/10/03 07:32:47;;;;;;;8.00;3.30;;;;;;;24.93;41.06;101668.48;105765;1253;64053;-78
2023/10/03 07:35:17;;;;;;;7.40;3.60;;;;;;;25.15;40.01;101673.23;105710;1253;72790;-74
2023/10/03 07:37:45;;;;;;;8.20;3.20;;;;;;;25.30;39.67;101674.01;105772;1255;60632;-77
2023/10/03 07:40:13;;;;;;;8.40;3.20;;;;;;;25.50;39.42;101675.62;105793;1257;61126;-76
2023/10/03 07:42:59;;;;;;;5.60;3.40;;;;;;;25.77;38.69;101674.58;102698;1295;600622;-77
2023/10/03 07:45:27;;;;;;;7.00;3.70;;;;;;;25.97;37.99;101671.99;104960;1269;61512;-78
2023/10/03 07:47:57;;;;;;;3.80;3.20;;;;;;;26.16;37.63;101673.14;104872;1267;62313;-76
2023/10/03 07:50:25;;;;;;;7.70;3.30;;;;;;;26.34;36.62;101672.38;104882;1267;71168;-76
2023/10/03 07:52:54;;;;;;;4.40;2.70;;;;;;;26.46;35.72;101671.92;104877;1267;63759;-73
2023/10/03 07:58:21;;;;;;;4.60;2.50;;;;;;;26.78;34.58;101668.28;102597;1293;600483;-76
2023/10/03 08:00:50;;;;;;;3.40;2.50;;;;;;;26.93;33.83;101668.86;104994;1270;60633;-77
2023/10/03 08:03:17;;;;;;;3.50;1.90;;;;;;;27.06;33.38;101672.00;104875;1267;59351;-73
2023/10/03 08:05:44;;;;;;;3.00;2.10;;;;;;;27.21;32.73;101672.00;104950;1266;72293;-76
2023/10/03 08:08:11;;;;;;;4.10;1.70;;;;;;;27.37;32.31;101672.33;104975;1272;64009;-72
2023/10/03 08:10:38;;;;;;;3.40;1.80;;;;;;;27.43;31.66;101672.65;104719;1270;277665;-73
2023/10/03 08:13:07;;;;;;;4.00;1.70;;;;;;;27.51;31.72;101666.52;105182;1269;61186;-77
2023/10/03 08:15:35;;;;;;;7.20;2.70;;;;;;;27.61;31.23;101667.19;105152;1269;60242;-79
2023/10/03 08:18:03;;;;;;;5.00;1.80;;;;;;;27.52;30.75;101659.67;104943;1264;72265;-77
2023/10/03 08:20:35;;;;;;;3.10;2.20;;;;;;;27.35;30.95;101665.34;104982;1269;64758;-75
2023/10/03 08:23:04;;;;;;;3.30;2.00;;;;;;;27.43;31.18;101660.27;105016;1268;73772;-76
2023/10/03 08:25:34;;;;;;;2.00;1.80;;;;;;;27.62;30.61;101664.22;105070;1263;60481;-77
2023/10/03 08:28:09;;;;;;;3.00;1.60;;;;;;;27.67;30.13;101662.50;105117;1263;61251;-78
2023/10/03 08:30:38;;;;;;;3.40;1.80;;;;;;;27.82;30.12;101666.96;105220;1260;73175;-75
2023/10/03 08:33:05;;;;;;;3.70;2.00;;;;;;;28.03;29.76;101660.52;105225;1266;64845;-76
2023/10/03 08:35:35;;;;;;;6.00;1.60;;;;;;;28.20;29.82;101651.88;105298;1265;73576;-77
2023/10/03 08:38:06;;;;;;;3.90;2.00;;;;;;;28.44;29.50;101653.88;105341;1261;60124;-76
2023/10/03 08:40:39;;;;;;;3.00;2.10;;;;;;;28.74;29.14;101656.16;105592;1257;60469;-75
2023/10/03 08:43:10;;;;;;;;;;;;;;;28.86;28.53;101654.13;105586;1259;72403;-76
2023/10/03 08:45:42;;;;;;;6.90;1.50;;;;;;;28.95;28.40;101649.27;105554;1259;64837;-74
2023/10/03 08:48:10;;;;;;;3.10;1.90;;;;;;;28.84;27.61;101645.61;105571;1259;72931;-76
2023/10/03 08:50:39;;;;;;;4.80;2.50;;;;;;;28.58;27.32;101647.49;105624;1257;59743;-76
2023/10/03 08:55:57;;;;;;;8.40;2.20;;;;;;;28.35;28.14;101641.91;105516;1259;72943;-77
2023/10/03 08:58:25;;;;;;;4.70;2.40;;;;;;;28.54;27.83;101645.80;105647;1259;63905;-74
2023/10/03 09:00:59;;;;;;;4.20;2.50;;;;;;;28.64;27.46;101641.95;105580;1257;72561;-76
2023/10/03 09:03:29;;;;;;;4.20;2.50;;;;;;;28.82;27.19;101644.92;105545;1256;60282;-77
2023/10/03 09:05:58;;;;;;;4.20;1.80;;;;;;;28.73;26.92;101636.13;105567;1259;59644;-76
2023/10/03 09:08:29;;;;;;;4.50;2.10;;;;;;;28.58;27.30;101632.05;105587;1257;73187;-77
2023/10/03 09:10:56;;;;;;;3.00;2.10;;;;;;;28.44;27.25;101629.69;105580;1260;64042;-76
2023/10/03 09:13:24;;;;;;;5.40;1.80;;;;;;;28.43;27.28;101631.48;105604;1259;72541;-74
2023/10/03 09:16:02;;;;;;;19.70;3.40;;;;;;;28.52;27.32;101630.73;105661;1257;59624;-75
2023/10/03 09:18:42;;;;;;;3.50;1.70;;;;;;;28.74;27.55;101631.57;105657;1256;60407;-76
2023/10/03 09:21:23;;;;;;;5.20;2.20;;;;;;;28.91;27.12;101628.69;105647;1259;73030;-75
2023/10/03 09:36:08;;;;;;;4.70;2.10;;;;;;;29.29;26.09;101616.44;103033;1290;600627;-80
2023/10/03 09:38:45;;;;;;;4.00;2.60;;;;;;;29.01;26.30;101610.34;104682;1273;61120;-80
2023/10/03 09:41:17;;;;;;;4.70;2.70;;;;;;;28.71;26.45;101612.02;104937;1272;59359;-77
2023/10/03 09:43:55;;;;;;;3.20;2.30;;;;;;;28.47;27.00;101609.86;105656;1254;71939;-80
2023/10/03 09:46:38;;;;;;;9.30;2.40;;;;;;;28.72;26.97;101614.51;105478;1259;63852;-79
2023/10/03 09:49:09;;;;;;;8.20;2.80;;;;;;;28.99;26.68;101612.73;105367;1254;248047;-74
2023/10/03 09:51:46;;;;;;;4.50;2.10;;;;;;;29.27;26.23;101610.02;105796;1254;60741;-76
2023/10/03 09:54:15;;;;;;;4.10;2.60;;;;;;;29.53;26.15;101603.48;105723;1257;61408;-77
2023/10/03 09:56:44;;;;;;;7.50;2.30;;;;;;;29.68;26.12;101599.65;105677;1254;72256;-76
2023/10/03 09:59:17;;;;;;;9.10;2.70;;;;;;;29.78;26.12;101601.13;105838;1252;65531;-78
2023/10/03 10:01:45;;;;;;;4.20;2.00;;;;;;;29.80;25.77;101597.44;105805;1253;74846;-77
2023/10/03 10:04:14;;;;;;;6.80;2.20;;;;;;;29.81;25.88;101594.30;106318;1257;59682;-76
2023/10/03 10:06:47;;;;;;;4.80;2.60;;;;;;;29.85;25.60;101594.15;105930;1256;60390;-77
2023/10/03 10:09:27;;;;;;;5.00;2.40;;;;;;;29.88;25.45;101595.54;105906;1254;73161;-78
2023/10/03 10:12:12;;;;;;;4.80;2.70;;;;;;;29.90;25.49;101596.73;105888;1257;63307;-77
2023/10/03 10:15:01;;;;;;;4.00;2.30;;;;;;;29.97;25.22;101597.06;105772;1257;74470;-76
2023/10/03 10:17:45;;;;;;;4.30;2.40;;;;;;;29.95;25.55;101592.27;105708;1253;60958;-78
2023/10/03 10:20:17;;;;;;;8.60;3.10;;;;;;;29.93;25.69;101594.67;105957;1254;59913;-76
2023/10/03 10:23:02;;;;;;;4.30;2.50;;;;;;;29.79;25.67;101590.27;105942;1255;73055;-78
2023/10/03 10:25:41;;;;;;;4.50;2.50;;;;;;;29.55;25.66;101586.89;105737;1257;63422;-78
2023/10/03 10:28:20;;;;;;;5.80;2.70;;;;;;;29.29;25.71;101584.34;105738;1254;73696;-79
2023/10/03 10:31:22;;;;;;;5.40;3.00;;;;;;;29.10;26.19;101587.17;105713;1257;59977;-80
2023/10/03 10:33:50;;;;;;;4.50;2.90;;;;;;;29.22;25.92;101582.27;105771;1254;61564;-79
2023/10/03 10:36:22;;;;;;;5.30;2.50;;;;;;;29.29;25.65;101578.55;105651;1257;73077;-80
2023/10/03 10:38:52;;;;;;;7.20;2.90;;;;;;;29.26;25.31;101574.63;105886;1257;63593;-77
2023/10/03 10:44:13;;;;;;;5.80;3.30;;;;;;;28.80;25.81;101569.39;105620;1257;60101;-79
2023/10/03 10:46:45;;;;;;;7.90;3.30;;;;;;;28.58;26.01;101568.03;105704;1253;60018;-78
2023/10/03 10:49:31;;;;;;;5.10;2.50;;;;;;;28.56;26.27;101567.88;105639;1258;72989;-78
2023/10/03 11:05:10;;;;;;;9.60;4.20;;;;;;;28.02;26.93;101567.88;102544;1292;600579;-78
2023/10/03 11:07:39;;;;;;;9.80;4.20;;;;;;;28.21;26.71;101562.69;104886;1269;60083;-79
2023/10/03 11:10:12;;;;;;;7.40;4.10;;;;;;;28.30;26.58;101566.21;104859;1269;59689;-77
2023/10/03 11:12:59;;;;;;;8.20;3.90;;;;;;;28.22;26.59;101562.58;104847;1269;72243;-76
2023/10/03 11:15:26;;;;;;;6.60;3.50;;;;;;;28.04;26.69;101569.77;104900;1270;63819;-77
2023/10/03 11:17:53;;;;;;;8.20;4.00;;;;;;;27.83;27.15;101565.61;104817;1270;207242;-75
2023/10/03 11:20:20;;;;;;;7.20;4.50;;;;;;;27.60;27.32;101569.34;105147;1263;60783;-76
2023/10/03 11:22:47;;;;;;;7.20;4.00;;;;;;;27.25;27.64;101567.36;104979;1263;60435;-75
2023/10/03 11:25:14;;;;;;;10.00;4.30;;;;;;;26.88;27.79;101565.27;104997;1267;71797;-76
2023/10/03 11:27:41;;;;;;;9.70;4.70;;;;;;;26.53;28.10;101563.61;104957;1267;63926;-77
2023/10/03 11:30:19;;;;;;;9.80;4.40;;;;;;;26.11;28.51;101561.45;105402;1260;72688;-78
2023/10/03 11:32:46;;;;;;;8.10;4.70;;;;;;;25.57;29.06;101564.36;105359;1260;60413;-75
2023/10/03 11:35:21;;;;;;;10.60;4.40;;;;;;;25.15;29.64;101564.19;105685;1256;60670;-76
2023/10/03 11:37:51;;;;;;;10.80;4.60;;;;;;;24.77;30.19;101561.30;105445;1260;72959;-76
2023/10/03 11:40:20;;;;;;;8.30;4.30;;;;;;;24.44;30.77;101562.72;105437;1260;63961;-77
2023/10/03 11:42:52;;;;;;;8.10;4.00;;;;;;;24.15;31.39;101561.80;105467;1256;71458;-76
2023/10/03 11:45:23;;;;;;;9.60;4.30;;;;;;;23.90;31.79;101558.83;105654;1260;61201;-77
2023/10/03 11:47:58;;;;;;;7.10;4.30;;;;;;;23.64;31.74;101560.45;105599;1256;60058;-78
2023/10/03 11:50:25;;;;;;;8.50;4.30;;;;;;;23.40;32.27;101563.95;105486;1260;73013;-74
2023/10/03 11:52:59;;;;;;;9.30;4.00;;;;;;;23.24;32.83;101557.38;105792;1255;63655;-74
2023/10/03 11:55:27;;;;;;;7.20;4.40;;;;;;;23.12;33.43;101564.05;105823;1255;72742;-76
2023/10/03 11:57:54;;;;;;;9.10;4.00;;;;;;;22.99;34.13;101558.85;105728;1253;60272;-76
2023/10/03 12:00:24;;;;;;;6.90;3.70;;;;;;;22.88;33.95;101558.20;105854;1251;61377;-73
2023/10/03 12:02:52;;;;;;;8.50;4.00;;;;;;;22.75;34.13;101554.60;105796;1252;73025;-77